Time;durP1;ratioP1;P1;durP2;ratioP2;P2;SDS_P1;SDS_P2;PMS_P1;PMS_P2;Temp;Humidity;BMP_temperature;BMP_pressure;BME280_temperature;BME280_humidity;BME280_pressure;Samples;Min_cycle;Max_cycle;Signal;HPM_P1;HPM_P2
2023/06/27 00:01:04;;;;;;;7.80;5.05;;;;;;;26.57;45.16;99902.00;5012299;28;20751;-69
2023/06/27 00:03:33;;;;;;;6.78;5.25;;;;;;;26.57;45.24;99907.47;5012125;28;20046;-69
2023/06/27 00:06:04;;;;;;;7.38;5.10;;;;;;;26.55;45.50;99915.06;5011841;28;20065;-69
2023/06/27 00:08:34;;;;;;;7.53;5.15;;;;;;;26.54;45.64;99913.38;5013058;28;20046;-69
2023/06/27 00:11:02;;;;;;;8.40;5.40;;;;;;;26.51;46.08;99900.94;5025775;28;20050;-69
2023/06/27 00:13:30;;;;;;;10.40;5.00;;;;;;;26.51;46.22;99908.28;5020787;28;20132;-68
2023/06/27 00:16:00;;;;;;;6.65;5.10;;;;;;;26.49;46.09;99904.91;5024834;28;20072;-69
2023/06/27 00:18:35;;;;;;;7.78;4.90;;;;;;;26.47;45.85;99918.81;5030710;28;20124;-68
2023/06/27 00:21:04;;;;;;;8.55;5.40;;;;;;;26.47;45.71;99917.97;5017282;28;20052;-69
2023/06/27 00:23:34;;;;;;;6.90;5.18;;;;;;;26.46;45.98;99913.53;5021131;28;20050;-68
2023/06/27 00:26:06;;;;;;;8.77;5.15;;;;;;;26.44;45.81;99908.28;5025200;28;20107;-68
2023/06/27 00:28:34;;;;;;;6.27;4.80;;;;;;;26.44;46.15;99907.41;5015155;28;20060;-68
2023/06/27 00:31:03;;;;;;;8.25;5.10;;;;;;;26.42;45.88;99904.88;5025443;28;20050;-68
2023/06/27 00:33:31;;;;;;;7.95;5.28;;;;;;;26.42;45.87;99915.81;5020897;28;20071;-68
2023/06/27 00:36:00;;;;;;;9.45;5.20;;;;;;;26.39;45.97;99910.75;5017778;28;20104;-69
2023/06/27 00:38:28;;;;;;;8.15;5.22;;;;;;;26.38;46.35;99913.72;5027617;28;20056;-68
2023/06/27 00:40:58;;;;;;;7.53;5.15;;;;;;;26.37;46.27;99915.59;5016110;28;20042;-69
2023/06/27 00:43:28;;;;;;;7.13;5.18;;;;;;;26.35;46.40;99916.81;5029181;28;20411;-69
2023/06/27 00:45:57;;;;;;;7.35;5.50;;;;;;;26.32;46.45;99919.94;5031351;28;20145;-69
2023/06/27 00:48:25;;;;;;;7.43;4.97;;;;;;;26.31;46.57;99918.25;5014618;28;20046;-69
2023/06/27 00:50:56;;;;;;;7.28;4.97;;;;;;;26.30;46.28;99922.03;5026708;28;20097;-69
2023/06/27 00:53:25;;;;;;;7.45;5.18;;;;;;;26.26;45.98;99927.09;5019498;28;20057;-69
2023/06/27 00:55:53;;;;;;;7.90;5.40;;;;;;;26.18;46.50;99919.88;5018421;28;20498;-69
2023/06/27 00:58:24;;;;;;;7.20;4.85;;;;;;;26.07;46.43;99920.44;5027439;28;20050;-69
2023/06/27 01:00:52;;;;;;;7.25;4.93;;;;;;;26.03;46.31;99913.69;5015451;28;20045;-69
2023/06/27 01:03:21;;;;;;;8.52;5.05;;;;;;;26.03;46.39;99913.69;5031198;28;20053;-69
2023/06/27 01:05:50;;;;;;;7.97;4.68;;;;;;;26.04;46.06;99907.16;5018769;28;20081;-68
2023/06/27 01:08:26;;;;;;;8.45;4.75;;;;;;;26.05;46.09;99903.38;5027296;28;20099;-68
2023/06/27 01:11:00;;;;;;;7.53;4.97;;;;;;;26.05;46.85;99897.91;5017560;28;20438;-69
2023/06/27 01:13:36;;;;;;;7.68;5.00;;;;;;;26.06;46.27;99910.56;5033854;28;20518;-68
2023/06/27 01:16:06;;;;;;;7.80;4.68;;;;;;;26.06;46.49;99910.56;5027881;28;20113;-68
2023/06/27 01:18:40;;;;;;;8.30;5.07;;;;;;;26.07;46.71;99904.06;5031489;28;20132;-68
2023/06/27 01:21:09;;;;;;;7.47;4.75;;;;;;;26.05;46.29;99892.44;5019765;28;20054;-68
2023/06/27 01:23:50;;;;;;;7.45;4.78;;;;;;;26.04;46.32;99895.38;5022305;28;20434;-69
2023/06/27 01:26:18;;;;;;;8.07;5.05;;;;;;;26.03;46.51;99889.09;5028828;28;20070;-69
2023/06/27 01:28:46;;;;;;;7.78;4.68;;;;;;;26.03;46.47;99888.25;5016059;28;20406;-69
2023/06/27 01:31:23;;;;;;;7.00;5.00;;;;;;;26.02;46.29;99886.56;5024234;28;20092;-69
2023/06/27 01:33:57;;;;;;;6.70;4.82;;;;;;;26.00;46.28;99875.84;5023321;28;20094;-69
2023/06/27 01:36:33;;;;;;;9.18;4.95;;;;;;;26.00;46.06;99878.56;5015579;28;20052;-69
2023/06/27 01:39:10;;;;;;;6.35;4.60;;;;;;;26.00;46.55;99881.28;5028262;28;20123;-69
2023/06/27 01:41:41;;;;;;;9.05;5.10;;;;;;;26.00;46.09;99872.25;5024901;28;20124;-68
2023/06/27 01:44:13;;;;;;;6.82;4.90;;;;;;;26.00;46.51;99872.25;5019793;28;20057;-69
2023/06/27 01:46:42;;;;;;;6.72;4.53;;;;;;;25.98;46.34;99864.25;5030659;28;20049;-68
2023/06/27 01:49:11;;;;;;;7.45;5.00;;;;;;;25.99;46.48;99865.94;5021028;28;20057;-69
2023/06/27 01:51:40;;;;;;;7.13;4.70;;;;;;;25.98;46.23;99863.41;5023261;28;20049;-69
2023/06/27 01:54:10;;;;;;;6.20;4.65;;;;;;;25.96;46.42;99855.41;5028729;28;20053;-69
2023/06/27 01:56:38;;;;;;;7.25;4.78;;;;;;;25.96;46.41;99859.00;5017372;28;20046;-69
2023/06/27 01:59:06;;;;;;;8.05;4.70;;;;;;;25.95;46.39;99854.56;5027887;28;20052;-68
2023/06/27 02:01:34;;;;;;;7.10;5.10;;;;;;;25.94;46.72;99852.03;5023801;28;20049;-69
2023/06/27 02:04:03;;;;;;;8.02;4.88;;;;;;;25.91;46.84;99853.28;5020066;28;20056;-69
2023/06/27 02:06:31;;;;;;;11.05;5.18;;;;;;;25.90;47.06;99858.97;5030377;28;20057;-68
2023/06/27 02:08:59;;;;;;;7.38;5.03;;;;;;;25.87;46.92;99854.75;5019266;28;20077;-69
2023/06/27 02:11:29;;;;;;;8.90;5.65;;;;;;;25.83;47.02;99861.63;5024974;28;20398;-68
2023/06/27 02:13:57;;;;;;;7.63;5.57;;;;;;;25.79;47.38;99868.56;5023244;28;20054;-68
2023/06/27 02:16:25;;;;;;;9.25;5.40;;;;;;;25.76;47.71;99866.19;5030262;28;20057;-69
2023/06/27 02:18:53;;;;;;;7.60;5.00;;;;;;;25.75;47.84;99869.16;5017857;28;20091;-69
2023/06/27 02:21:22;;;;;;;7.68;5.35;;;;;;;25.74;47.73;99862.00;5025275;28;20132;-68
2023/06/27 02:23:50;;;;;;;7.93;5.13;;;;;;;25.72;47.89;99859.47;5025649;28;20419;-69
2023/06/27 02:26:18;;;;;;;7.47;5.07;;;;;;;25.72;47.65;99853.16;5017448;28;20102;-69
2023/06/27 02:28:48;;;;;;;8.10;5.35;;;;;;;25.70;47.91;99850.63;5029995;28;20104;-69
2023/06/27 02:31:16;;;;;;;8.80;5.32;;;;;;;25.70;48.10;99850.63;5020633;28;20056;-70
2023/06/27 02:33:44;;;;;;;8.30;5.32;;;;;;;25.69;47.97;99844.31;5022049;28;20057;-69
2023/06/27 02:36:13;;;;;;;7.55;5.30;;;;;;;25.69;47.98;99846.19;5028309;28;20045;-68
2023/06/27 02:38:41;;;;;;;7.65;5.28;;;;;;;25.68;48.08;99839.03;5016716;28;20077;-69
2023/06/27 02:41:09;;;;;;;7.50;5.20;;;;;;;25.67;48.20;99835.47;5026637;28;20046;-69
2023/06/27 02:43:37;;;;;;;8.57;5.50;;;;;;;25.66;47.81;99828.28;5023345;28;20069;-68
2023/06/27 02:46:07;;;;;;;8.13;5.63;;;;;;;25.65;48.26;99823.03;5018528;28;20050;-67
2023/06/27 02:48:35;;;;;;;9.27;5.75;;;;;;;25.65;48.27;99833.97;5029090;28;20048;-69
2023/06/27 02:51:03;;;;;;;7.97;5.30;;;;;;;25.62;48.49;99829.75;5018575;28;20530;-69
2023/06/27 02:53:31;;;;;;;7.40;5.60;;;;;;;25.63;48.69;99830.59;5023154;28;20060;-69
2023/06/27 02:56:02;;;;;;;8.75;5.72;;;;;;;25.62;48.57;99828.91;5026657;28;20146;-69
2023/06/27 02:58:30;;;;;;;10.07;5.65;;;;;;;25.61;48.83;99825.34;5016140;28;20049;-69
2023/06/27 03:00:59;;;;;;;8.77;5.65;;;;;;;25.59;48.79;99821.97;5027798;28;20045;-69
2023/06/27 03:03:28;;;;;;;7.25;5.38;;;;;;;25.59;48.54;99824.69;5021626;28;20544;-69
2023/06/27 03:06:03;;;;;;;10.43;5.85;;;;;;;25.58;48.91;99830.38;5019184;28;20045;-69
2023/06/27 03:08:32;;;;;;;8.82;5.63;;;;;;;25.56;49.06;99848.81;5029141;28;20056;-69
2023/06/27 03:11:00;;;;;;;11.00;6.60;;;;;;;25.53;49.32;99857.41;5017953;28;20049;-69
2023/06/27 03:13:28;;;;;;;11.10;6.97;;;;;;;25.46;49.41;99860.06;5023049;28;20056;-69
2023/06/27 03:15:56;;;;;;;9.32;6.50;;;;;;;25.44;49.33;99856.72;5025261;28;20560;-69
2023/06/27 03:18:24;;;;;;;10.02;6.25;;;;;;;25.44;49.54;99856.72;5015669;28;20046;-69
2023/06/27 03:20:54;;;;;;;10.68;6.50;;;;;;;25.44;49.53;99843.06;5028133;28;20084;-69
2023/06/27 03:23:22;;;;;;;8.35;6.38;;;;;;;25.45;49.50;99842.00;5020600;28;20405;-69
2023/06/27 03:25:50;;;;;;;9.93;5.97;;;;;;;25.46;49.45;99838.22;5019863;28;20673;-69
2023/06/27 03:28:18;;;;;;;9.70;6.45;;;;;;;25.46;49.56;99838.22;5028695;28;20038;-69
2023/06/27 03:30:47;;;;;;;9.85;6.40;;;;;;;25.47;49.52;99844.53;5015829;28;20045;-69
2023/06/27 03:33:15;;;;;;;9.77;6.07;;;;;;;25.46;49.61;99840.13;5024684;28;20532;-69
2023/06/27 03:35:43;;;;;;;9.02;6.45;;;;;;;25.46;49.39;99835.50;5023383;28;20060;-69
2023/06/27 03:38:13;;;;;;;9.20;6.28;;;;;;;25.46;49.52;99837.38;5016718;28;20081;-69
2023/06/27 03:40:41;;;;;;;14.93;6.15;;;;;;;25.45;49.68;99835.72;5028244;28;20053;-69
2023/06/27 03:43:11;;;;;;;9.80;6.38;;;;;;;25.45;49.80;99836.53;5018744;28;20048;-69
2023/06/27 03:45:40;;;;;;;8.15;6.00;;;;;;;25.45;49.87;99836.53;5021204;28;20077;-69
2023/06/27 03:48:09;;;;;;;9.85;6.63;;;;;;;25.46;49.86;99837.38;5012156;28;20158;-69
2023/06/27 03:50:37;;;;;;;9.95;6.35;;;;;;;25.44;50.02;99828.56;5012051;28;20457;-69
2023/06/27 03:53:06;;;;;;;8.45;5.93;;;;;;;25.44;50.15;99829.41;5011778;28;20072;-69
2023/06/27 03:55:38;;;;;;;7.60;5.85;;;;;;;25.43;50.02;99816.78;5012055;28;20053;-69
2023/06/27 03:58:06;;;;;;;10.70;6.53;;;;;;;25.44;50.04;99823.94;5011798;28;20042;-69
2023/06/27 04:00:34;;;;;;;10.52;6.35;;;;;;;25.41;50.05;99821.63;5019568;28;20445;-69
2023/06/27 04:03:02;;;;;;;8.65;6.25;;;;;;;25.30;49.99;99813.97;5023819;28;20057;-69
2023/06/27 04:05:31;;;;;;;9.32;6.45;;;;;;;25.21;50.59;99824.19;5031434;28;20053;-69
2023/06/27 04:07:59;;;;;;;10.43;6.07;;;;;;;25.13;50.65;99827.06;5031791;28;20045;-69
2023/06/27 04:10:27;;;;;;;10.20;6.30;;;;;;;25.07;50.74;99823.22;5031741;28;20045;-69
2023/06/27 04:12:58;;;;;;;9.57;6.22;;;;;;;25.00;51.04;99819.56;5031308;28;20057;-69
2023/06/27 04:15:26;;;;;;;9.88;6.50;;;;;;;24.97;51.33;99811.75;5031518;28;20049;-69
2023/06/27 04:17:54;;;;;;;9.98;6.35;;;;;;;24.99;50.95;99826.03;5031358;28;20041;-69
2023/06/27 04:20:23;;;;;;;12.20;6.75;;;;;;;24.91;51.24;99826.22;5031700;28;20503;-69
2023/06/27 04:22:51;;;;;;;12.88;6.00;;;;;;;24.78;51.67;99850.59;5031608;28;20076;-68
2023/06/27 04:25:19;;;;;;;11.30;6.65;;;;;;;24.77;51.92;99840.72;5031574;28;20053;-68
2023/06/27 04:27:47;;;;;;;9.15;5.80;;;;;;;24.82;51.92;99849.19;5031432;28;20049;-68
2023/06/27 04:30:17;;;;;;;10.30;6.40;;;;;;;24.88;51.69;99862.03;5031379;28;20439;-69
2023/06/27 04:32:48;;;;;;;9.73;6.20;;;;;;;24.92;51.28;99860.63;5031485;28;20046;-69
2023/06/27 04:35:18;;;;;;;9.85;6.25;;;;;;;24.98;51.25;99865.28;5031344;28;20056;-69
2023/06/27 04:37:46;;;;;;;11.90;6.05;;;;;;;25.03;51.26;99865.59;5031143;28;20061;-68
2023/06/27 04:40:15;;;;;;;8.73;5.95;;;;;;;25.08;51.17;99884.94;5031421;28;20041;-68
2023/06/27 04:42:44;;;;;;;9.57;6.15;;;;;;;25.10;51.07;99869.22;5031152;28;20072;-70
2023/06/27 04:45:12;;;;;;;8.13;5.55;;;;;;;25.13;50.91;99869.88;5031088;28;20069;-67
2023/06/27 04:47:42;;;;;;;11.30;6.25;;;;;;;25.15;50.90;99860.44;5031152;28;20077;-68
2023/06/27 04:50:14;;;;;;;10.48;6.50;;;;;;;25.17;51.27;99822.03;5031369;28;20461;-69
2023/06/27 04:52:43;;;;;;;10.20;6.40;;;;;;;25.18;51.16;99834.63;5030995;28;20049;-68
2023/06/27 04:55:12;;;;;;;12.48;6.57;;;;;;;25.20;51.27;99832.59;5024029;28;20053;-69
2023/06/27 04:57:41;;;;;;;10.50;6.35;;;;;;;25.21;51.29;99820.63;5011346;28;20510;-68
2023/06/27 05:00:11;;;;;;;12.75;6.65;;;;;;;25.19;51.78;99819.94;5011417;28;20046;-69
2023/06/27 05:02:39;;;;;;;12.38;7.07;;;;;;;25.08;52.39;99838.53;5027094;28;20108;-69
2023/06/27 05:05:18;;;;;;;12.48;6.72;;;;;;;24.97;53.47;99843.66;5018385;28;20410;-69
2023/06/27 05:07:46;;;;;;;13.57;6.90;;;;;;;24.92;53.19;99844.25;5019646;28;20129;-68
2023/06/27 05:10:14;;;;;;;9.27;6.20;;;;;;;24.95;53.12;99843.00;5027627;28;20045;-68
2023/06/27 05:12:42;;;;;;;9.95;6.60;;;;;;;24.98;53.15;99846.19;5034841;28;20058;-68
2023/06/27 05:15:11;;;;;;;11.43;6.50;;;;;;;25.04;53.10;99850.91;5034645;28;20104;-68
2023/06/27 05:17:39;;;;;;;10.75;5.75;;;;;;;25.08;52.56;99852.19;5034671;28;20051;-69
2023/06/27 05:20:10;;;;;;;8.98;5.97;;;;;;;25.10;52.51;99839.22;5020013;28;20061;-69
2023/06/27 05:22:39;;;;;;;9.35;6.28;;;;;;;25.14;52.50;99844.28;5030735;28;20042;-69
2023/06/27 05:25:08;;;;;;;10.88;6.35;;;;;;;25.17;52.26;99854.78;5020529;28;20410;-69
2023/06/27 05:27:36;;;;;;;10.43;6.60;;;;;;;25.18;52.33;99857.31;5024469;28;20105;-69
2023/06/27 05:30:05;;;;;;;9.93;6.60;;;;;;;25.19;52.44;99858.16;5014779;28;20046;-68
2023/06/27 05:32:33;;;;;;;13.02;6.43;;;;;;;25.19;52.70;99861.75;5014618;28;20050;-68
2023/06/27 05:35:02;;;;;;;12.23;7.00;;;;;;;25.18;52.99;99857.31;5014310;28;20498;-68
2023/06/27 05:37:30;;;;;;;10.95;6.63;;;;;;;25.19;52.98;99852.69;5023494;28;20498;-69
2023/06/27 05:39:59;;;;;;;12.73;6.60;;;;;;;25.22;52.89;99857.78;5030937;28;20100;-68
2023/06/27 05:42:27;;;;;;;11.52;6.50;;;;;;;25.23;53.05;99860.31;5017214;28;20073;-68
2023/06/27 05:44:55;;;;;;;12.07;6.50;;;;;;;25.25;52.46;99851.94;5029085;28;20439;-70
2023/06/27 05:47:23;;;;;;;8.55;6.22;;;;;;;25.28;52.51;99856.97;5022013;28;20495;-71
2023/06/27 05:49:52;;;;;;;9.40;6.20;;;;;;;25.30;52.78;99860.38;5034506;28;20116;-67
2023/06/27 05:52:20;;;;;;;12.93;6.47;;;;;;;25.31;52.38;99873.84;5034218;28;20087;-69
2023/06/27 05:54:49;;;;;;;14.27;6.40;;;;;;;25.32;52.68;99870.06;5017270;28;20099;-68
2023/06/27 05:57:19;;;;;;;10.82;6.63;;;;;;;25.35;52.67;99874.28;5025825;28;20081;-68
2023/06/27 05:59:47;;;;;;;9.45;6.25;;;;;;;25.36;52.78;99876.78;5024673;28;20535;-67
2023/06/27 06:02:15;;;;;;;14.07;6.50;;;;;;;25.39;52.97;99873.69;5017723;28;20600;-68
2023/06/27 06:04:43;;;;;;;10.43;6.72;;;;;;;25.37;52.93;99875.75;5013431;28;20096;-68
2023/06/27 06:07:11;;;;;;;12.35;6.63;;;;;;;25.40;53.47;99871.81;5013559;28;20108;-67
2023/06/27 06:09:40;;;;;;;12.63;7.10;;;;;;;25.40;54.01;99869.06;5013269;28;20049;-67
2023/06/27 06:12:09;;;;;;;11.38;7.50;;;;;;;25.42;54.53;99868.88;5013610;28;20134;-67
2023/06/27 06:14:38;;;;;;;12.07;6.53;;;;;;;25.41;54.86;99859.84;5013197;28;20054;-67
2023/06/27 06:17:06;;;;;;;11.93;7.05;;;;;;;25.42;54.81;99863.41;5013398;28;20046;-66
2023/06/27 06:19:35;;;;;;;12.70;6.95;;;;;;;25.42;54.71;99853.34;5013106;28;20510;-69
2023/06/27 06:22:03;;;;;;;12.55;6.65;;;;;;;25.43;54.50;99851.44;5012866;28;20076;-67
2023/06/27 06:24:31;;;;;;;12.88;7.30;;;;;;;25.44;54.90;99845.78;5013429;28;20104;-67
2023/06/27 06:26:59;;;;;;;11.13;6.70;;;;;;;25.44;54.63;99851.25;5012956;28;20438;-67
2023/06/27 06:29:27;;;;;;;12.02;7.10;;;;;;;25.44;54.58;99856.72;5013018;28;20042;-67
2023/06/27 06:31:57;;;;;;;12.63;6.60;;;;;;;25.41;55.09;99859.84;5025518;28;20045;-67
2023/06/27 06:34:25;;;;;;;11.30;7.60;;;;;;;25.40;55.01;99860.88;5032837;28;20052;-66
2023/06/27 06:36:53;;;;;;;9.90;6.72;;;;;;;25.31;55.62;99873.00;5032835;28;20057;-67
2023/06/27 06:39:21;;;;;;;11.23;6.78;;;;;;;25.24;55.98;99870.19;5032380;28;20446;-67
2023/06/27 06:41:50;;;;;;;9.02;6.75;;;;;;;25.21;56.01;99872.47;5032712;28;20045;-67
2023/06/27 06:44:18;;;;;;;9.77;6.70;;;;;;;25.18;56.21;99876.41;5032270;28;20051;-67
2023/06/27 06:46:46;;;;;;;12.25;7.50;;;;;;;25.18;55.98;99883.75;5032629;28;20117;-68
2023/06/27 06:49:15;;;;;;;14.90;7.72;;;;;;;25.16;56.48;99888.56;5032063;28;20696;-68
2023/06/27 06:51:43;;;;;;;14.18;6.88;;;;;;;25.10;56.66;99887.50;5032424;28;20060;-66
2023/06/27 06:54:12;;;;;;;12.52;6.97;;;;;;;25.06;56.75;99892.47;5032264;28;20132;-67
2023/06/27 06:56:40;;;;;;;10.25;6.63;;;;;;;24.97;57.32;99896.34;5032067;28;20053;-67
2023/06/27 06:59:08;;;;;;;10.63;6.82;;;;;;;24.89;58.16;99895.63;5031785;28;20492;-67
2023/06/27 07:01:36;;;;;;;9.82;7.15;;;;;;;24.84;58.25;99893.47;5032232;28;20450;-67
2023/06/27 07:04:07;;;;;;;10.68;7.32;;;;;;;24.79;58.28;99899.50;5032282;28;20144;-66
2023/06/27 07:06:36;;;;;;;11.73;7.30;;;;;;;24.73;58.54;99894.00;5031105;28;20145;-67
2023/06/27 07:09:05;;;;;;;10.02;7.10;;;;;;;24.68;58.78;99880.06;5030434;28;20045;-67
2023/06/27 07:11:33;;;;;;;11.30;6.32;;;;;;;24.67;59.10;99898.31;5031167;28;20053;-66
2023/06/27 07:14:01;;;;;;;12.20;7.65;;;;;;;24.61;59.52;99928.22;5032238;28;20140;-66
2023/06/27 07:16:30;;;;;;;11.20;6.90;;;;;;;24.51;60.10;99931.25;5031731;28;20063;-67
2023/06/27 07:18:58;;;;;;;10.50;7.50;;;;;;;24.44;60.66;99925.72;5031799;28;20137;-66
2023/06/27 07:21:26;;;;;;;12.20;7.20;;;;;;;24.39;60.72;99911.81;5031766;28;20129;-65
2023/06/27 07:23:55;;;;;;;10.88;7.43;;;;;;;24.34;61.16;99914.28;5031780;28;20053;-67
2023/06/27 07:26:23;;;;;;;10.90;7.38;;;;;;;24.32;61.53;99916.34;5031670;28;20107;-67
2023/06/27 07:28:51;;;;;;;13.07;7.60;;;;;;;24.31;61.60;99920.09;5031724;28;20103;-67
2023/06/27 07:31:20;;;;;;;12.25;7.95;;;;;;;24.28;62.03;99925.88;5031804;28;20116;-68
2023/06/27 07:33:48;;;;;;;11.35;7.70;;;;;;;24.23;62.53;99925.63;5031002;28;20141;-67
2023/06/27 07:36:16;;;;;;;10.60;7.68;;;;;;;24.22;62.73;99913.00;5031383;28;20049;-67
2023/06/27 07:38:44;;;;;;;11.38;7.95;;;;;;;24.23;63.13;99918.28;5031302;28;20064;-67
2023/06/27 07:41:14;;;;;;;11.95;8.18;;;;;;;24.18;63.23;99926.16;5031212;28;20080;-67
2023/06/27 07:43:42;;;;;;;10.82;8.20;;;;;;;24.17;63.56;99920.91;5031369;28;20056;-64
2023/06/27 07:46:10;;;;;;;10.68;8.00;;;;;;;24.18;64.09;99917.16;5031397;28;20115;-66
2023/06/27 07:48:38;;;;;;;11.20;8.25;;;;;;;24.21;64.04;99906.72;5031370;28;20045;-68
2023/06/27 07:51:06;;;;;;;10.75;8.05;;;;;;;24.21;63.75;99923.06;5031363;28;20046;-67
2023/06/27 07:53:34;;;;;;;10.82;7.60;;;;;;;24.25;63.56;99920.81;5030279;28;20277;-67
2023/06/27 07:56:03;;;;;;;11.55;7.55;;;;;;;24.33;63.46;99928.09;5030273;28;20127;-67
2023/06/27 07:58:32;;;;;;;11.95;7.88;;;;;;;24.38;63.23;99931.09;5030765;28;20498;-67
2023/06/27 08:01:00;;;;;;;11.80;7.95;;;;;;;24.41;63.09;99938.88;5031139;28;20100;-66
2023/06/27 08:03:28;;;;;;;9.10;7.20;;;;;;;24.45;63.03;99941.03;5031179;28;20060;-67
2023/06/27 08:05:57;;;;;;;10.02;7.57;;;;;;;24.52;62.63;99941.97;5031026;28;20046;-67
2023/06/27 08:08:25;;;;;;;10.43;7.55;;;;;;;24.46;63.09;99947.34;5031393;28;20057;-68
2023/06/27 08:10:56;;;;;;;9.93;8.25;;;;;;;24.48;63.12;99940.66;5031035;28;20046;-68
2023/06/27 08:13:24;;;;;;;12.38;8.07;;;;;;;24.51;62.88;99943.03;5031340;28;20041;-68
2023/06/27 08:15:54;;;;;;;9.50;7.65;;;;;;;24.58;62.45;99944.97;5030947;28;20045;-67
2023/06/27 08:18:22;;;;;;;11.75;7.45;;;;;;;24.61;62.69;99941.84;5030707;28;20490;-68
2023/06/27 08:20:50;;;;;;;11.68;8.23;;;;;;;24.63;62.62;99948.00;5030743;28;20058;-68
2023/06/27 08:23:18;;;;;;;12.85;8.75;;;;;;;24.62;63.16;99949.03;5030753;28;20042;-67
2023/06/27 08:25:46;;;;;;;11.15;8.80;;;;;;;24.64;62.97;99946.94;5030663;28;20095;-67
2023/06/27 08:28:15;;;;;;;10.85;7.70;;;;;;;24.66;62.85;99950.31;5030732;28;20150;-67
2023/06/27 08:30:43;;;;;;;10.43;8.07;;;;;;;24.69;62.70;99949.94;5030380;28;20391;-67
2023/06/27 08:33:13;;;;;;;11.30;8.07;;;;;;;24.71;62.77;99943.28;5030816;28;20060;-66
2023/06/27 08:35:41;;;;;;;11.00;8.00;;;;;;;24.73;62.35;99937.63;5031000;28;20046;-67
2023/06/27 08:38:10;;;;;;;13.05;8.50;;;;;;;24.76;62.47;99931.78;5030764;28;20132;-67
2023/06/27 08:40:40;;;;;;;10.77;8.05;;;;;;;24.78;62.51;99936.00;5013307;28;20092;-67
2023/06/27 08:43:11;;;;;;;10.40;7.68;;;;;;;24.80;61.98;99943.97;5031009;28;20080;-67
2023/06/27 08:45:39;;;;;;;9.90;7.75;;;;;;;24.81;62.09;99940.25;5032353;28;20050;-67
2023/06/27 08:48:09;;;;;;;12.02;7.80;;;;;;;24.82;62.08;99936.47;5034948;28;20053;-67
2023/06/27 08:50:40;;;;;;;11.98;7.90;;;;;;;24.82;61.82;99941.94;5034593;28;20056;-67
2023/06/27 08:53:13;;;;;;;10.45;8.00;;;;;;;24.83;62.10;99957.25;5034492;28;20085;-67
2023/06/27 08:55:45;;;;;;;10.67;7.93;;;;;;;24.84;61.84;99953.50;5034815;28;20088;-67
2023/06/27 08:58:16;;;;;;;12.15;8.35;;;;;;;24.83;62.01;99951.81;5034340;28;20045;-65
2023/06/27 09:00:45;;;;;;;18.50;8.90;;;;;;;24.77;62.81;99949.81;5034119;28;20045;-67
2023/06/27 09:03:13;;;;;;;19.02;7.93;;;;;;;24.81;62.51;99946.53;5034590;28;20049;-65
2023/06/27 09:05:44;;;;;;;16.63;7.80;;;;;;;24.85;62.26;99955.19;5034208;28;20476;-67
2023/06/27 09:08:13;;;;;;;14.18;7.32;;;;;;;24.89;61.68;99956.47;5034464;28;20056;-66
2023/06/27 09:10:41;;;;;;;9.48;6.78;;;;;;;24.94;61.35;99948.56;5033894;28;20080;-66
2023/06/27 09:13:10;;;;;;;10.75;7.20;;;;;;;24.98;61.12;99949.00;5034624;28;20049;-66
2023/06/27 09:15:38;;;;;;;9.68;5.95;;;;;;;25.03;60.86;99955.63;5034433;28;20046;-66
2023/06/27 09:18:07;;;;;;;10.93;6.47;;;;;;;25.07;60.50;99948.75;5034074;28;20140;-66
2023/06/27 09:20:35;;;;;;;11.43;6.97;;;;;;;25.11;60.54;99949.22;5033976;28;20049;-67
2023/06/27 09:23:05;;;;;;;12.40;6.55;;;;;;;25.14;60.37;99953.44;5034078;28;20422;-67
2023/06/27 09:25:34;;;;;;;12.15;6.65;;;;;;;25.18;60.12;99960.19;5033927;28;20160;-67
2023/06/27 09:28:15;;;;;;;8.65;6.63;;;;;;;25.21;60.19;99959.81;5034145;28;20049;-67
2023/06/27 09:30:52;;;;;;;8.15;6.00;;;;;;;25.25;59.58;99963.84;5033762;28;20056;-67
2023/06/27 09:33:21;;;;;;;9.40;6.47;;;;;;;25.29;59.56;99970.63;5034328;28;20065;-67
2023/06/27 09:35:51;;;;;;;11.07;7.15;;;;;;;25.33;59.71;99969.16;5033795;28;20053;-66
2023/06/27 09:38:31;;;;;;;10.05;6.80;;;;;;;25.37;59.64;99975.91;5033826;28;20103;-67
2023/06/27 09:41:03;;;;;;;10.45;7.53;;;;;;;25.40;59.89;99979.13;5033547;28;20654;-68
2023/06/27 09:43:34;;;;;;;11.57;7.55;;;;;;;25.44;60.19;99976.84;5034020;28;20045;-67
2023/06/27 09:46:03;;;;;;;9.45;6.93;;;;;;;25.47;60.14;99973.72;5033636;28;20410;-66
2023/06/27 09:48:31;;;;;;;11.80;7.32;;;;;;;25.51;59.75;99972.28;5033753;28;20045;-67
2023/06/27 09:51:00;;;;;;;10.05;7.40;;;;;;;25.56;59.93;99977.16;5033454;28;20045;-65
2023/06/27 09:53:31;;;;;;;9.45;6.18;;;;;;;25.59;59.35;99974.91;5033259;28;20057;-66
2023/06/27 09:56:02;;;;;;;10.20;7.05;;;;;;;25.62;61.37;99966.31;5033191;28;20475;-66
2023/06/27 09:58:31;;;;;;;12.70;8.90;;;;;;;25.47;63.16;99975.59;5032398;28;20144;-67
2023/06/27 10:01:05;;;;;;;12.05;9.00;;;;;;;25.42;63.43;99983.53;5032789;28;20045;-67
2023/06/27 10:03:34;;;;;;;12.07;8.32;;;;;;;25.39;63.64;99982.91;5033137;28;20053;-70
2023/06/27 10:06:02;;;;;;;11.32;8.02;;;;;;;25.42;62.45;99978.91;5029050;28;20042;-70
2023/06/27 10:08:41;;;;;;;13.82;8.45;;;;;;;25.46;62.63;99976.63;5013320;28;20058;-69
2023/06/27 10:11:09;;;;;;;11.88;8.10;;;;;;;25.47;63.38;99990.09;5012964;28;20049;-69
2023/06/27 10:13:41;;;;;;;13.57;8.40;;;;;;;25.46;62.80;99982.94;5013181;28;20128;-70
2023/06/27 10:16:10;;;;;;;10.38;7.75;;;;;;;25.35;62.02;99984.31;5013114;28;20081;-70
2023/06/27 10:18:38;;;;;;;10.25;7.85;;;;;;;25.23;61.95;99979.56;5012989;28;20458;-69
2023/06/27 10:21:06;;;;;;;11.40;8.02;;;;;;;25.19;62.48;99979.13;5013137;28;20042;-69
2023/06/27 10:23:37;;;;;;;13.73;7.45;;;;;;;25.31;62.57;99987.63;5013186;28;20041;-66
2023/06/27 10:26:09;;;;;;;9.50;6.90;;;;;;;25.36;62.25;99988.72;5012740;28;20046;-67
2023/06/27 10:28:38;;;;;;;12.43;6.70;;;;;;;25.40;61.98;99990.03;5012980;28;20054;-69
2023/06/27 10:31:06;;;;;;;13.75;7.13;;;;;;;25.47;62.66;99984.63;5012968;28;20042;-69
2023/06/27 10:33:42;;;;;;;10.00;6.50;;;;;;;25.51;62.02;99988.69;5012757;28;20045;-67
2023/06/27 10:36:11;;;;;;;11.35;6.15;;;;;;;25.55;61.89;99984.50;5012635;28;20050;-67
2023/06/27 10:38:40;;;;;;;10.25;6.65;;;;;;;25.58;61.52;99986.03;5012626;28;20521;-66
2023/06/27 10:41:23;;;;;;;9.57;6.25;;;;;;;25.59;61.51;99991.28;5011646;28;20384;-67
2023/06/27 10:43:52;;;;;;;;;;;;;;;25.60;60.91;100000.31;5013365;28;20411;-67
2023/06/27 10:46:21;;;;;;;8.45;6.50;;;;;;;25.59;60.44;100002.19;5012475;28;19996;-67
2023/06/27 10:48:53;;;;;;;8.38;6.18;;;;;;;25.59;59.69;100001.38;5012599;28;20070;-68
2023/06/27 10:51:23;;;;;;;8.75;5.85;;;;;;;25.60;60.17;100012.09;5012145;28;20491;-67
2023/06/27 10:54:14;;;;;;;11.68;6.07;;;;;;;25.59;59.07;100007.66;5012775;28;20049;-68
2023/06/27 10:56:45;;;;;;;8.20;6.00;;;;;;;25.55;58.52;100000.03;5012459;28;20132;-68
2023/06/27 10:59:15;;;;;;;9.15;5.60;;;;;;;25.53;58.41;100002.97;5012357;28;20096;-68
2023/06/27 11:01:44;;;;;;;9.48;6.00;;;;;;;25.52;58.52;100012.22;5012483;28;20042;-68
2023/06/27 11:04:16;;;;;;;9.40;6.05;;;;;;;25.52;58.24;100012.22;5012503;28;20073;-68
2023/06/27 11:06:46;;;;;;;8.13;6.05;;;;;;;25.52;58.12;100017.66;5012104;28;20604;-68
2023/06/27 11:09:16;;;;;;;8.27;5.57;;;;;;;25.51;57.83;100015.97;5011919;28;20056;-68
2023/06/27 11:11:55;;;;;;;7.80;5.57;;;;;;;25.51;57.26;100010.53;5012165;28;20050;-68
2023/06/27 11:14:38;;;;;;;8.07;5.30;;;;;;;25.50;57.10;100016.19;5012268;28;20045;-69
2023/06/27 11:17:06;;;;;;;8.00;5.35;;;;;;;25.50;56.93;100027.94;5012005;28;20116;-68
2023/06/27 11:19:36;;;;;;;8.25;5.43;;;;;;;25.47;56.98;100036.50;5012094;28;20050;-68
2023/06/27 11:22:05;;;;;;;10.57;5.00;;;;;;;25.45;57.00;100046.78;5012009;28;20076;-68
2023/06/27 11:24:35;;;;;;;9.43;5.45;;;;;;;25.42;56.86;100052.63;5011823;28;20076;-67
2023/06/27 11:27:07;;;;;;;6.30;4.72;;;;;;;25.40;56.73;100057.44;5011771;28;20564;-68
2023/06/27 11:29:35;;;;;;;6.93;5.05;;;;;;;25.36;56.47;100073.34;5011973;28;20096;-68
2023/06/27 11:32:04;;;;;;;6.25;4.45;;;;;;;25.35;56.28;100073.56;5012126;28;20049;-68
2023/06/27 11:34:33;;;;;;;10.27;4.90;;;;;;;25.31;56.58;100073.09;5012066;28;20054;-68
2023/06/27 11:37:01;;;;;;;7.88;5.03;;;;;;;25.25;56.82;100071.13;5011935;28;20446;-69
2023/06/27 11:39:29;;;;;;;6.50;4.60;;;;;;;25.24;56.99;100069.44;5011317;28;20395;-68